createdAt,value
2022-11-08T00:01:51.771Z,2.50
2022-11-08T00:04:21.171Z,2.05
2022-11-08T00:07:07.873Z,2.22
2022-11-08T00:09:53.416Z,2.35
2022-11-08T00:12:40.488Z,2.33
2022-11-08T00:15:10.132Z,2.70
2022-11-08T00:17:38.693Z,2.35
2022-11-08T00:20:09.250Z,2.05
2022-11-08T00:22:38.317Z,2.00
2022-11-08T00:25:08.048Z,2.38
2022-11-08T00:27:37.941Z,2.10
2022-11-08T00:30:08.218Z,2.17
2022-11-08T00:32:36.669Z,2.30
2022-11-08T00:35:06.370Z,2.15
2022-11-08T00:37:35.470Z,2.10
2022-11-08T00:40:04.208Z,2.33
2022-11-08T00:42:33.184Z,2.30
2022-11-08T00:45:03.780Z,2.20
2022-11-08T00:47:35.618Z,2.30
2022-11-08T00:50:05.356Z,2.00
2022-11-08T00:52:33.684Z,2.08
2022-11-08T00:55:01.852Z,2.03
2022-11-08T00:57:53.538Z,2.10
2022-11-08T01:00:20.359Z,2.22
2022-11-08T01:02:49.125Z,2.05
2022-11-08T01:05:17.518Z,2.20
2022-11-08T01:07:45.676Z,2.17
2022-11-08T01:10:13.787Z,2.10
2022-11-08T01:12:42.266Z,2.05
2022-11-08T01:15:12.478Z,1.90
2022-11-08T01:17:42.840Z,2.10
2022-11-08T01:20:12.062Z,2.20
2022-11-08T01:22:40.174Z,1.85
2022-11-08T01:25:09.038Z,1.90
2022-11-08T01:27:37.181Z,1.88
2022-11-08T01:30:07.386Z,1.98
2022-11-08T01:32:35.758Z,2.00
2022-11-08T01:35:06.927Z,2.00
2022-11-08T01:37:35.831Z,2.03
2022-11-08T01:40:05.262Z,2.05
2022-11-08T01:42:34.542Z,2.13
2022-11-08T01:45:07.158Z,2.10
2022-11-08T01:47:36.437Z,2.10
2022-11-08T01:50:09.016Z,1.80
2022-11-08T01:52:44.184Z,2.08
2022-11-08T01:55:18.550Z,1.95
2022-11-08T01:57:53.347Z,1.83
2022-11-08T02:00:21.958Z,1.90
2022-11-08T02:02:56.724Z,1.90
2022-11-08T02:05:27.635Z,1.98
2022-11-08T02:08:01.283Z,2.00
2022-11-08T02:10:36.544Z,1.92
2022-11-08T02:13:09.577Z,1.77
2022-11-08T02:15:40.919Z,2.28
2022-11-08T02:18:09.259Z,1.90
2022-11-08T02:20:38.940Z,1.70
2022-11-08T02:23:42.517Z,1.90
2022-11-08T02:26:10.985Z,2.00
2022-11-08T02:28:40.534Z,2.10
2022-11-08T02:31:10.310Z,1.98
2022-11-08T02:33:39.215Z,2.00
2022-11-08T02:36:09.296Z,1.70
2022-11-08T02:38:43.993Z,2.03
2022-11-08T02:41:12.154Z,2.15
2022-11-08T02:43:40.384Z,1.77
2022-11-08T02:46:08.473Z,1.65
2022-11-08T02:48:37.132Z,2.03
2022-11-08T02:51:05.446Z,1.80
2022-11-08T02:53:34.275Z,1.95
2022-11-08T02:56:04.171Z,1.90
2022-11-08T02:58:32.263Z,1.77
2022-11-08T03:01:00.548Z,1.98
2022-11-08T03:03:28.744Z,2.17
2022-11-08T03:05:58.050Z,1.80
2022-11-08T03:08:26.150Z,1.70
2022-11-08T03:10:54.258Z,1.67
2022-11-08T03:13:24.534Z,2.00
2022-11-08T03:15:53.820Z,1.88
2022-11-08T03:18:22.360Z,1.60
2022-11-08T03:20:50.665Z,1.58
2022-11-08T03:23:18.827Z,1.60
2022-11-08T03:25:47.749Z,1.80
2022-11-08T03:28:20.237Z,1.70
2022-11-08T03:30:54.271Z,1.40
2022-11-08T03:33:23.273Z,1.92
2022-11-08T03:35:52.492Z,1.80
2022-11-08T03:38:21.277Z,1.70
2022-11-08T03:40:49.930Z,1.90
2022-11-08T03:43:18.421Z,1.80
2022-11-08T03:45:47.720Z,1.58
2022-11-08T03:48:19.177Z,1.55
2022-11-08T03:50:48.461Z,1.83
2022-11-08T03:53:17.050Z,1.70
2022-11-08T03:55:45.878Z,1.83
2022-11-08T03:58:14.467Z,1.67
2022-11-08T04:00:43.787Z,1.60
2022-11-08T04:03:12.699Z,1.50
2022-11-08T04:05:43.060Z,1.65
2022-11-08T04:08:11.650Z,1.45
2022-11-08T04:10:40.507Z,1.80
2022-11-08T04:13:28.528Z,1.60
2022-11-08T04:15:59.251Z,2.05
2022-11-08T04:18:45.326Z,1.60
2022-11-08T04:21:21.995Z,1.45
2022-11-08T04:23:52.885Z,1.55
2022-11-08T04:26:22.807Z,1.70
2022-11-08T04:28:51.375Z,1.67
2022-11-08T04:31:21.784Z,1.65
2022-11-08T04:33:51.617Z,1.90
2022-11-08T04:36:22.491Z,1.55
2022-11-08T04:38:53.008Z,1.67
2022-11-08T04:41:23.755Z,1.58
2022-11-08T04:43:55.504Z,1.80
2022-11-08T04:46:26.841Z,1.42
2022-11-08T04:48:58.281Z,1.48
2022-11-08T04:51:30.046Z,1.70
2022-11-08T04:54:01.224Z,1.50
2022-11-08T04:56:31.457Z,1.80
2022-11-08T04:59:01.813Z,1.60
2022-11-08T05:01:32.246Z,1.60
2022-11-08T05:04:00.951Z,1.50
2022-11-08T05:06:32.463Z,1.38
2022-11-08T05:09:01.417Z,1.50
2022-11-08T05:11:31.545Z,1.70
2022-11-08T05:14:00.074Z,1.50
2022-11-08T05:16:30.543Z,1.58
2022-11-08T05:18:59.391Z,1.80
2022-11-08T05:21:45.975Z,1.98
2022-11-08T05:24:18.403Z,1.88
2022-11-08T05:26:48.842Z,1.90
2022-11-08T05:29:18.365Z,1.73
2022-11-08T05:31:46.609Z,1.77
2022-11-08T05:34:14.972Z,1.95
2022-11-08T05:36:43.216Z,2.17
2022-11-08T05:39:11.351Z,1.90
2022-11-08T05:41:40.777Z,1.90
2022-11-08T05:44:08.915Z,1.95
2022-11-08T05:46:37.072Z,1.70
2022-11-08T05:49:05.856Z,1.40
2022-11-08T05:51:34.140Z,1.58
2022-11-08T05:54:02.418Z,1.70
2022-11-08T05:56:30.709Z,1.73
2022-11-08T05:59:00.321Z,1.50
2022-11-08T06:01:28.509Z,1.42
2022-11-08T06:03:56.971Z,1.67
2022-11-08T06:06:25.184Z,1.70
2022-11-08T06:08:54.760Z,1.67
2022-11-08T06:11:26.119Z,1.30
2022-11-08T06:13:55.480Z,1.63
2022-11-08T06:16:26.328Z,1.80
2022-11-08T06:18:54.902Z,1.30
2022-11-08T06:21:26.350Z,1.35
2022-11-08T06:23:55.653Z,1.67
2022-11-08T06:26:25.163Z,1.88
2022-11-08T06:28:54.083Z,1.60
2022-11-08T06:31:22.759Z,2.03
2022-11-08T06:33:52.746Z,1.70
2022-11-08T06:36:21.674Z,1.60
2022-11-08T06:38:55.266Z,1.70
2022-11-08T06:41:24.572Z,2.90
2022-11-08T06:43:53.353Z,2.50
2022-11-08T06:46:22.532Z,2.70
2022-11-08T06:48:52.675Z,2.13
2022-11-08T06:51:21.474Z,2.08
2022-11-08T06:53:49.703Z,2.38
2022-11-08T06:56:17.797Z,2.00
2022-11-08T06:58:45.982Z,2.00
2022-11-08T07:01:14.422Z,2.40
2022-11-08T07:03:42.534Z,2.53
2022-11-08T07:06:12.101Z,2.13
2022-11-08T07:08:40.303Z,2.03
2022-11-08T07:11:10.044Z,2.28
2022-11-08T07:13:38.128Z,2.13
2022-11-08T07:16:07.001Z,1.98
2022-11-08T07:18:35.820Z,2.08
2022-11-08T07:21:04.546Z,2.15
2022-11-08T07:23:34.680Z,2.15
2022-11-08T07:26:04.435Z,1.67
2022-11-08T07:28:33.124Z,2.08
2022-11-08T07:31:04.301Z,1.85
2022-11-08T07:33:32.901Z,2.15
2022-11-08T07:36:01.292Z,1.95
2022-11-08T07:38:29.442Z,1.88
2022-11-08T07:40:59.819Z,1.85
2022-11-08T07:43:29.461Z,1.90
2022-11-08T07:46:03.862Z,2.08
2022-11-08T07:48:32.360Z,2.33
2022-11-08T07:51:00.628Z,1.58
2022-11-08T07:53:29.235Z,2.08
2022-11-08T07:55:59.002Z,1.80
2022-11-08T07:58:27.137Z,2.10
2022-11-08T08:00:55.253Z,2.33
2022-11-08T08:03:23.832Z,1.85
2022-11-08T08:06:00.451Z,1.40
2022-11-08T08:08:29.994Z,1.98
2022-11-08T08:11:01.451Z,1.77
2022-11-08T08:13:30.195Z,1.85
2022-11-08T08:16:02.275Z,1.83
2022-11-08T08:18:30.978Z,1.70
2022-11-08T08:20:59.458Z,1.88
2022-11-08T08:23:28.081Z,1.92
2022-11-08T08:25:56.964Z,1.85
2022-11-08T08:28:26.768Z,1.88
2022-11-08T08:30:55.665Z,1.70
2022-11-08T08:33:28.677Z,1.90
2022-11-08T08:35:57.491Z,1.70
2022-11-08T08:38:25.737Z,1.60
2022-11-08T08:40:53.938Z,1.80
2022-11-08T08:43:22.468Z,1.70
2022-11-08T08:45:52.669Z,1.80
2022-11-08T08:48:21.440Z,1.58
2022-11-08T08:50:49.584Z,1.70
2022-11-08T08:53:18.249Z,1.70
2022-11-08T08:55:47.969Z,1.70
2022-11-08T08:58:16.283Z,1.80
2022-11-08T09:03:35.887Z,1.65
2022-11-08T09:06:04.762Z,2.00
2022-11-08T09:08:32.930Z,1.58
2022-11-08T09:11:02.808Z,1.65
2022-11-08T09:13:31.842Z,1.52
2022-11-08T09:16:03.501Z,1.52
2022-11-08T09:18:33.498Z,1.80
2022-11-08T09:21:04.221Z,2.00
2022-11-08T09:23:32.505Z,1.65
2022-11-08T09:26:02.125Z,1.55
2022-11-08T09:28:32.608Z,1.63
2022-11-08T09:31:06.550Z,1.65
2022-11-08T09:33:37.121Z,1.67
2022-11-08T09:36:07.277Z,1.70
2022-11-08T09:38:35.509Z,1.80
2022-11-08T09:41:59.689Z,1.63
2022-11-08T09:44:56.418Z,1.70
2022-11-08T09:47:27.732Z,1.42
2022-11-08T09:50:06.714Z,1.42
2022-11-08T09:52:36.565Z,1.90
2022-11-08T09:55:20.500Z,1.40
2022-11-08T09:58:09.060Z,1.33
2022-11-08T10:00:40.765Z,1.70
2022-11-08T10:03:15.171Z,1.60
2022-11-08T10:05:53.156Z,1.40
2022-11-08T10:08:29.683Z,1.33
2022-11-08T10:11:16.878Z,1.60
2022-11-08T10:14:04.108Z,1.55
2022-11-08T10:16:45.342Z,1.30
2022-11-08T10:19:41.505Z,1.30
2022-11-08T10:22:22.371Z,1.40
2022-11-08T10:25:00.730Z,1.38
2022-11-08T10:27:36.993Z,1.50
2022-11-08T10:30:14.518Z,1.40
2022-11-08T10:32:45.595Z,1.40
2022-11-08T10:35:22.755Z,1.75
2022-11-08T10:37:53.448Z,1.50
2022-11-08T10:40:36.195Z,1.50
2022-11-08T10:43:11.202Z,1.30
2022-11-08T10:45:39.565Z,1.50
2022-11-08T10:48:11.004Z,1.30
2022-11-08T10:50:45.387Z,1.40
2022-11-08T10:53:23.687Z,1.30
2022-11-08T10:55:54.614Z,1.50
2022-11-08T10:58:39.717Z,1.30
2022-11-08T11:01:18.921Z,1.50
2022-11-08T11:03:49.820Z,1.50
2022-11-08T11:06:30.218Z,1.52
2022-11-08T11:09:02.199Z,1.50
2022-11-08T11:11:38.952Z,1.50
2022-11-08T11:14:16.490Z,1.48
2022-11-08T11:16:57.653Z,1.35
2022-11-08T11:19:27.428Z,1.33
2022-11-08T11:22:02.643Z,1.48
2022-11-08T11:24:32.700Z,1.20
2022-11-08T11:27:07.257Z,1.40
2022-11-08T11:29:36.962Z,1.38
2022-11-08T11:32:25.266Z,1.50
2022-11-08T11:34:57.748Z,45.67
2022-11-08T11:37:35.194Z,128.95
2022-11-08T11:40:14.904Z,120.68
2022-11-08T11:42:54.102Z,87.28
2022-11-08T11:45:29.866Z,82.13
2022-11-08T11:48:01.782Z,72.40
2022-11-08T11:50:34.882Z,61.50
2022-11-08T11:53:07.254Z,64.78
2022-11-08T11:56:10.447Z,66.57
2022-11-08T11:59:18.624Z,60.53
2022-11-08T12:02:06.107Z,50.03
2022-11-08T12:05:03.947Z,29.77
2022-11-08T12:07:33.881Z,31.20
2022-11-08T12:10:17.903Z,40.67
2022-11-08T12:12:59.702Z,44.08
2022-11-08T12:15:35.751Z,45.63
2022-11-08T12:18:42.776Z,44.00
2022-11-08T12:21:15.509Z,44.08
2022-11-08T12:24:19.577Z,44.92
2022-11-08T12:26:57.530Z,42.17
2022-11-08T12:29:31.389Z,43.40
2022-11-08T12:32:28.581Z,45.45
2022-11-08T12:35:13.768Z,40.95
2022-11-08T12:38:11.250Z,39.75
2022-11-08T12:40:50.174Z,38.72
2022-11-08T12:43:36.129Z,39.55
2022-11-08T12:46:12.994Z,38.60
2022-11-08T12:49:17.966Z,40.33
2022-11-08T12:52:09.687Z,38.60
2022-11-08T12:54:47.820Z,37.55
2022-11-08T12:57:28.992Z,37.17
2022-11-08T13:00:08.483Z,38.08
2022-11-08T13:02:40.774Z,36.47
2022-11-08T13:05:13.346Z,34.85
2022-11-08T13:07:48.872Z,35.67
2022-11-08T13:10:31.947Z,34.40
2022-11-08T13:13:29.485Z,36.20
2022-11-08T13:16:15.340Z,35.40
2022-11-08T13:18:50.805Z,33.70
2022-11-08T13:21:39.880Z,34.85
2022-11-08T13:24:50.618Z,33.88
2022-11-08T13:27:36.587Z,34.45
2022-11-08T13:30:37.037Z,34.38
2022-11-08T13:33:22.721Z,40.28
2022-11-08T13:36:09.208Z,37.78
2022-11-08T13:38:49.146Z,32.72
2022-11-08T13:41:20.714Z,53.17
2022-11-08T13:43:50.561Z,51.83
2022-11-08T13:46:47.906Z,43.40
2022-11-08T13:49:24.113Z,37.78
2022-11-08T13:52:46.528Z,35.17
2022-11-08T13:55:46.026Z,31.95
2022-11-08T13:58:39.264Z,28.02
2022-11-08T14:01:10.733Z,25.85
2022-11-08T14:03:56.295Z,23.83
2022-11-08T14:06:37.406Z,22.98
2022-11-08T14:09:33.788Z,20.77
2022-11-08T14:12:11.684Z,18.40
2022-11-08T14:14:50.414Z,18.30
2022-11-08T14:17:33.530Z,17.83
2022-11-08T14:20:27.809Z,16.75
2022-11-08T14:22:57.741Z,13.13
2022-11-08T14:25:32.458Z,14.00
2022-11-08T14:28:00.869Z,12.18
2022-11-08T14:30:29.617Z,12.65
2022-11-08T14:33:16.959Z,11.68
2022-11-08T14:35:55.791Z,10.13
2022-11-08T14:38:24.899Z,9.20
2022-11-08T14:40:56.948Z,9.40
2022-11-08T14:43:40.656Z,8.25
2022-11-08T14:46:16.626Z,7.68
2022-11-08T14:48:51.921Z,8.30
2022-11-08T14:51:20.666Z,7.93
2022-11-08T14:53:50.605Z,6.43
2022-11-08T14:56:22.969Z,6.63
2022-11-08T14:58:53.604Z,6.25
2022-11-08T15:01:25.524Z,6.53
2022-11-08T15:03:57.335Z,5.50
2022-11-08T15:06:35.895Z,5.68
2022-11-08T15:09:06.073Z,5.32
2022-11-08T15:11:40.071Z,4.68
2022-11-08T15:14:11.634Z,4.75
2022-11-08T15:16:42.860Z,4.55
2022-11-08T15:19:30.328Z,4.40
2022-11-08T15:22:01.549Z,3.80
2022-11-08T15:24:37.676Z,4.03
2022-11-08T15:27:17.985Z,4.32
2022-11-08T15:29:52.346Z,4.70
2022-11-08T15:32:22.961Z,3.40
2022-11-08T15:34:55.865Z,3.83
2022-11-08T15:37:31.591Z,4.45
2022-11-08T15:40:03.406Z,3.72
2022-11-08T15:42:34.369Z,3.80
2022-11-08T15:45:05.977Z,3.95
2022-11-08T15:47:45.939Z,3.88
2022-11-08T15:50:19.677Z,3.70
2022-11-08T15:52:50.113Z,3.75
2022-11-08T15:55:21.403Z,3.28
2022-11-08T15:57:51.768Z,3.22
2022-11-08T16:00:24.112Z,2.95
2022-11-08T16:02:53.591Z,3.58
2022-11-08T16:05:25.974Z,2.70
2022-11-08T16:07:55.025Z,3.38
2022-11-08T16:10:30.782Z,3.22
2022-11-08T16:13:01.427Z,11.15
2022-11-08T16:15:33.178Z,83.68
2022-11-08T16:18:01.870Z,149.48
2022-11-08T16:20:32.697Z,85.72
2022-11-08T16:23:03.085Z,58.40
2022-11-08T16:25:36.579Z,42.63
2022-11-08T16:28:14.273Z,30.80
2022-11-08T16:30:46.301Z,18.55
2022-11-08T16:33:21.571Z,14.48
2022-11-08T16:35:51.382Z,11.48
2022-11-08T16:38:25.388Z,10.85
2022-11-08T16:40:53.967Z,10.55
2022-11-08T16:43:24.041Z,10.25
2022-11-08T16:46:08.126Z,9.85
2022-11-08T16:48:39.688Z,9.57
2022-11-08T16:51:18.714Z,8.35
2022-11-08T16:53:47.375Z,9.25
2022-11-08T16:56:16.620Z,8.63
2022-11-08T16:58:46.462Z,8.70
2022-11-08T17:01:27.005Z,8.05
2022-11-08T17:04:01.211Z,8.23
2022-11-08T17:06:30.698Z,8.05
2022-11-08T17:08:59.098Z,7.43
2022-11-08T17:11:27.258Z,6.78
2022-11-08T17:13:57.227Z,5.57
2022-11-08T17:16:25.896Z,5.38
2022-11-08T17:18:54.314Z,5.30
2022-11-08T17:21:43.494Z,4.57
2022-11-08T17:24:13.663Z,4.75
2022-11-08T17:26:45.650Z,4.60
2022-11-08T17:29:15.385Z,4.45
2022-11-08T17:31:43.713Z,4.32
2022-11-08T17:34:12.146Z,4.50
2022-11-08T17:36:40.431Z,4.45
2022-11-08T17:39:08.919Z,4.30
2022-11-08T17:41:37.103Z,4.45
2022-11-08T17:44:05.461Z,4.40
2022-11-08T17:46:35.024Z,4.40
2022-11-08T17:49:03.379Z,4.05
2022-11-08T17:51:31.999Z,3.97
2022-11-08T17:54:00.411Z,4.20
2022-11-08T17:56:28.961Z,3.88
2022-11-08T17:58:57.597Z,4.03
2022-11-08T18:01:25.943Z,4.05
2022-11-08T18:03:55.647Z,4.05
2022-11-08T18:06:24.235Z,3.80
2022-11-08T18:08:52.549Z,3.85
2022-11-08T18:11:20.772Z,4.30
2022-11-08T18:13:49.449Z,4.20
2022-11-08T18:16:21.981Z,4.28
2022-11-08T18:18:50.733Z,3.70
2022-11-08T18:21:21.086Z,4.32
2022-11-08T18:23:50.358Z,3.90
2022-11-08T18:26:19.567Z,4.03
2022-11-08T18:28:47.879Z,4.07
2022-11-08T18:31:19.660Z,3.80
2022-11-08T18:33:49.029Z,3.58
2022-11-08T18:36:22.230Z,3.83
2022-11-08T18:38:52.095Z,3.85
2022-11-08T18:41:25.190Z,3.47
2022-11-08T18:43:54.543Z,3.97
2022-11-08T18:46:25.115Z,3.92
2022-11-08T18:48:54.655Z,4.15
2022-11-08T18:51:24.675Z,3.75
2022-11-08T18:53:53.553Z,3.70
2022-11-08T18:56:22.584Z,4.30
2022-11-08T18:58:52.344Z,4.82
2022-11-08T19:01:21.536Z,3.95
2022-11-08T19:03:50.916Z,4.60
2022-11-08T19:06:20.613Z,3.80
2022-11-08T19:08:50.224Z,4.32
2022-11-08T19:11:22.693Z,4.28
2022-11-08T19:13:51.110Z,3.85
2022-11-08T19:16:22.006Z,3.92
2022-11-08T19:18:51.189Z,4.00
2022-11-08T19:21:21.594Z,4.32
2022-11-08T19:23:52.288Z,4.22
2022-11-08T19:26:22.781Z,4.03
2022-11-08T19:28:52.357Z,4.05
2022-11-08T19:31:23.328Z,3.92
2022-11-08T19:33:53.424Z,3.75
2022-11-08T19:36:24.604Z,3.97
2022-11-08T19:38:55.833Z,4.45
2022-11-08T19:41:26.880Z,4.38
2022-11-08T19:43:56.054Z,4.10
2022-11-08T19:46:26.765Z,4.53
2022-11-08T19:48:54.997Z,3.67
2022-11-08T19:51:25.250Z,3.83
2022-11-08T19:53:58.916Z,4.13
2022-11-08T19:56:57.688Z,4.00
2022-11-08T19:59:18.974Z,3.88
2022-11-08T20:01:47.579Z,4.22
2022-11-08T20:04:18.420Z,3.65
2022-11-08T20:06:47.304Z,3.72
2022-11-08T20:09:17.092Z,3.50
2022-11-08T20:11:45.532Z,3.33
2022-11-08T20:14:15.640Z,3.85
2022-11-08T20:16:49.288Z,5.60
2022-11-08T20:19:23.292Z,4.20
2022-11-08T20:21:51.573Z,3.58
2022-11-08T20:24:21.198Z,4.30
2022-11-08T20:26:49.663Z,3.67
2022-11-08T20:29:18.305Z,4.72
2022-11-08T20:31:46.806Z,3.97
2022-11-08T20:34:15.300Z,4.50
2022-11-08T20:36:45.152Z,3.90
2022-11-08T20:39:15.142Z,3.70
2022-11-08T20:41:44.618Z,3.97
2022-11-08T20:44:13.788Z,3.50
2022-11-08T20:46:44.826Z,3.70
2022-11-08T20:49:13.511Z,3.78
2022-11-08T20:51:41.716Z,3.30
2022-11-08T20:54:11.644Z,3.40
2022-11-08T20:56:40.283Z,2.97
2022-11-08T20:59:09.973Z,3.42
2022-11-08T21:01:39.234Z,3.28
2022-11-08T21:04:08.822Z,3.45
2022-11-08T21:06:37.453Z,3.03
2022-11-08T21:09:32.781Z,3.00
2022-11-08T21:11:55.768Z,2.55
2022-11-08T21:14:25.921Z,3.15
2022-11-08T21:19:42.786Z,2.95
2022-11-08T21:22:16.773Z,3.13
2022-11-08T21:24:47.470Z,2.92
2022-11-08T21:27:16.946Z,2.80
2022-11-08T21:29:50.230Z,2.92
2022-11-08T21:32:18.825Z,3.00
2022-11-08T21:34:47.382Z,2.80
2022-11-08T21:37:15.912Z,3.10
2022-11-08T21:39:44.128Z,2.90
2022-11-08T21:42:21.688Z,2.55
2022-11-08T21:44:59.013Z,3.28
2022-11-08T21:47:29.681Z,3.13
2022-11-08T21:49:57.851Z,2.83
2022-11-08T21:52:25.984Z,3.15
2022-11-08T21:54:54.125Z,2.83
2022-11-08T21:57:22.249Z,3.03
2022-11-08T21:59:50.908Z,2.50
2022-11-08T22:02:20.427Z,2.63
2022-11-08T22:04:48.820Z,2.70
2022-11-08T22:07:17.793Z,2.63
2022-11-08T22:09:46.786Z,3.08
2022-11-08T22:12:14.986Z,2.95
2022-11-08T22:14:43.278Z,3.00
2022-11-08T22:17:11.510Z,2.88
2022-11-08T22:19:41.175Z,2.67
2022-11-08T22:22:09.368Z,2.75
2022-11-08T22:24:37.631Z,2.75
2022-11-08T22:27:06.011Z,2.67
2022-11-08T22:29:34.567Z,3.22
2022-11-08T22:32:03.292Z,2.58
2022-11-08T22:34:31.474Z,2.67
2022-11-08T22:37:01.247Z,2.85
2022-11-08T22:39:29.485Z,2.97
2022-11-08T22:41:57.850Z,3.13
2022-11-08T22:44:26.080Z,3.00
2022-11-08T22:46:54.356Z,2.35
2022-11-08T22:49:22.629Z,2.72
2022-11-08T22:51:51.400Z,2.70
2022-11-08T22:54:21.225Z,3.08
2022-11-08T22:56:50.381Z,2.88
2022-11-08T22:59:18.854Z,2.40
2022-11-08T23:01:47.347Z,2.53
2022-11-08T23:04:16.154Z,3.05
2022-11-08T23:06:44.732Z,2.78
2022-11-08T23:09:13.516Z,2.75
2022-11-08T23:12:00.810Z,2.75
2022-11-08T23:14:45.679Z,2.80
2022-11-08T23:17:13.932Z,2.35
2022-11-08T23:19:59.469Z,2.38
2022-11-08T23:22:45.696Z,2.30
2022-11-08T23:25:13.842Z,2.60
2022-11-08T23:28:01.280Z,2.55
2022-11-08T23:30:47.236Z,2.47
2022-11-08T23:33:15.864Z,2.50
2022-11-08T23:36:04.285Z,2.67
2022-11-08T23:38:32.882Z,2.67
2022-11-08T23:41:18.801Z,2.20
2022-11-08T23:44:05.945Z,2.63
2022-11-08T23:46:34.274Z,2.38
2022-11-08T23:49:03.519Z,2.72
2022-11-08T23:51:32.097Z,2.30
2022-11-08T23:54:00.318Z,2.63
2022-11-08T23:56:29.605Z,2.70
2022-11-08T23:59:01.079Z,2.30
